Terminal Aerodrome Forecast
Issued by NWS

Home | Current Version | Previous Version | Text Only | Print | Product List | Glossary On
Versions: 1 2 3 4 5 6 7 8 9 10 11 12 13 14 15 16
000
FTUS41 KPHI 310528
TAFPNE
TAF
KPNE 310528Z 3106/0106 31005KT P6SM SKC
      TEMPO 3106/3108 5SM BR
     FM311500 30011KT P6SM SKC
     FM010100 26003KT P6SM FEW070=

USA.gov is the U.S. government's official web portal to all federal, state and local government web resources and services.